Time;durP1;ratioP1;P1;durP2;ratioP2;P2;SDS_P1;SDS_P2;PMS_P1;PMS_P2;Temp;Humidity;BMP_temperature;BMP_pressure;BME280_temperature;BME280_humidity;BME280_pressure;Samples;Min_cycle;Max_cycle;Signal;HPM_P1;HPM_P2
2022/09/05 00:00:02;;;;;;;0.90;0.90;;;;;;;;;;1659530;29;21601;-62
2022/09/05 00:01:03;;;;;;;5.30;1.27;;;;;;;;;;1656205;29;21680;-63
2022/09/05 00:02:36;;;;;;;1.67;1.30;;;;;;;;;;1655459;29;21627;-63
2022/09/05 00:03:35;;;;;;;1.13;1.08;;;;;;;;;;1663211;29;21809;-63
2022/09/05 00:04:38;;;;;;;1.10;1.10;;;;;;;;;;1658747;29;22575;-63
2022/09/05 00:06:09;;;;;;;1.20;1.10;;;;;;;;;;1663014;29;21604;-63
2022/09/05 00:07:09;;;;;;;1.25;1.15;;;;;;;;;;1657886;29;22015;-63
2022/09/05 00:08:14;;;;;;;4.03;1.20;;;;;;;;;;1661890;29;21642;-63
2022/09/05 00:09:14;;;;;;;3.72;1.20;;;;;;;;;;1662537;29;22403;-62
2022/09/05 00:10:16;;;;;;;1.33;1.23;;;;;;;;;;1661604;29;21675;-63
2022/09/05 00:11:15;;;;;;;1.20;1.10;;;;;;;;;;1661669;29;22067;-63
2022/09/05 00:12:11;;;;;;;1.45;1.20;;;;;;;;;;1660850;29;21631;-63
2022/09/05 00:13:05;;;;;;;1.38;1.27;;;;;;;;;;1661295;29;22674;-63
2022/09/05 00:14:20;;;;;;;0.90;0.90;;;;;;;;;;1662957;29;21603;-63
2022/09/05 00:15:22;;;;;;;1.75;1.13;;;;;;;;;;1659030;29;21594;-63
2022/09/05 00:16:47;;;;;;;3.33;1.10;;;;;;;;;;1653075;29;22123;-63
2022/09/05 00:17:56;;;;;;;1.13;1.00;;;;;;;;;;1650782;29;21662;-63
2022/09/05 00:19:00;;;;;;;1.45;1.27;;;;;;;;;;1655489;29;22009;-63
2022/09/05 00:20:01;;;;;;;1.00;1.00;;;;;;;;;;1663131;29;21602;-63
2022/09/05 00:21:05;;;;;;;5.45;1.13;;;;;;;;;;1662465;29;21612;-63
2022/09/05 00:22:16;;;;;;;1.00;0.98;;;;;;;;;;1661450;29;22499;-63
2022/09/05 00:23:21;;;;;;;1.88;1.20;;;;;;;;;;1657418;29;21875;-63
2022/09/05 00:24:40;;;;;;;0.90;0.90;;;;;;;;;;1660348;29;21717;-62
2022/09/05 00:25:56;;;;;;;1.40;1.30;;;;;;;;;;1657538;29;22662;-63
2022/09/05 00:26:58;;;;;;;1.13;1.05;;;;;;;;;;1660154;29;21607;-63
2022/09/05 00:27:57;;;;;;;1.25;1.00;;;;;;;;;;1663350;29;22480;-63
2022/09/05 00:29:03;;;;;;;0.98;0.98;;;;;;;;;;1661906;29;22528;-63
2022/09/05 00:30:07;;;;;;;1.08;1.00;;;;;;;;;;1661976;29;21601;-63
2022/09/05 00:31:14;;;;;;;1.98;1.17;;;;;;;;;;1662347;29;22503;-63
2022/09/05 00:32:19;;;;;;;1.20;1.08;;;;;;;;;;1659759;29;21759;-63
2022/09/05 00:33:27;;;;;;;1.00;1.00;;;;;;;;;;1660633;29;22240;-63
2022/09/05 00:34:37;;;;;;;0.95;0.88;;;;;;;;;;1662894;29;21669;-63
2022/09/05 00:35:56;;;;;;;2.70;1.08;;;;;;;;;;1660508;29;22066;-63
2022/09/05 00:36:52;;;;;;;3.63;1.20;;;;;;;;;;1656476;29;22003;-64
2022/09/05 00:37:48;;;;;;;1.15;1.08;;;;;;;;;;1661646;29;21823;-63
2022/09/05 00:38:41;;;;;;;1.00;1.00;;;;;;;;;;1662083;29;21993;-63
2022/09/05 00:39:37;;;;;;;1.30;1.20;;;;;;;;;;1655770;29;22206;-63
2022/09/05 00:40:32;;;;;;;1.30;1.20;;;;;;;;;;1655517;29;21608;-63
2022/09/05 00:41:25;;;;;;;1.20;1.10;;;;;;;;;;1653086;29;21722;-63
2022/09/05 00:42:20;;;;;;;3.35;1.23;;;;;;;;;;1654944;29;21606;-62
2022/09/05 00:43:18;;;;;;;1.10;1.10;;;;;;;;;;1658899;29;22413;-64
2022/09/05 00:44:12;;;;;;;1.40;1.30;;;;;;;;;;1660102;29;21736;-63
2022/09/05 00:45:07;;;;;;;1.55;1.48;;;;;;;;;;1662597;29;22044;-64
2022/09/05 00:46:04;;;;;;;2.30;1.30;;;;;;;;;;1661214;29;21647;-64
2022/09/05 00:47:05;;;;;;;0.77;0.77;;;;;;;;;;1662750;29;21668;-64
2022/09/05 00:48:14;;;;;;;1.38;1.27;;;;;;;;;;1662578;29;21699;-64
2022/09/05 00:49:20;;;;;;;1.10;1.00;;;;;;;;;;1653682;29;21755;-64
2022/09/05 00:50:18;;;;;;;0.95;0.95;;;;;;;;;;1655436;29;21570;-63
2022/09/05 00:51:26;;;;;;;0.98;0.98;;;;;;;;;;1652393;29;21607;-64
2022/09/05 00:52:26;;;;;;;1.05;1.05;;;;;;;;;;1655593;29;21719;-64
2022/09/05 00:53:26;;;;;;;0.93;0.93;;;;;;;;;;1662910;29;21765;-64
2022/09/05 00:54:44;;;;;;;1.08;0.85;;;;;;;;;;1661591;29;21586;-63
2022/09/05 00:55:42;;;;;;;1.35;0.90;;;;;;;;;;1658279;29;22012;-64
2022/09/05 00:56:49;;;;;;;1.00;0.95;;;;;;;;;;1661494;29;21721;-64
2022/09/05 00:58:15;;;;;;;2.28;0.90;;;;;;;;;;1660491;29;21845;-63
2022/09/05 01:00:35;;;;;;;1.00;0.88;;;;;;;;;;1476282;32;21683;-63
2022/09/05 01:01:32;;;;;;;1.20;1.10;;;;;;;;;;1680110;28;22133;-63
2022/09/05 01:02:45;;;;;;;1.10;1.10;;;;;;;;;;1677107;29;21615;-63
2022/09/05 01:03:56;;;;;;;0.88;0.88;;;;;;;;;;1679705;29;21724;-63
2022/09/05 01:04:58;;;;;;;0.80;0.80;;;;;;;;;;1677845;29;22438;-63
2022/09/05 01:06:20;;;;;;;0.82;0.82;;;;;;;;;;1672400;29;22310;-63
2022/09/05 01:07:27;;;;;;;2.05;0.88;;;;;;;;;;1675519;29;22078;-62
2022/09/05 01:09:02;;;;;;;0.63;0.63;;;;;;;;;;1678037;29;22204;-62
2022/09/05 01:10:11;;;;;;;1.02;0.93;;;;;;;;;;1675260;29;22659;-63
2022/09/05 01:11:10;;;;;;;0.95;0.73;;;;;;;;;;1677981;29;22379;-63
2022/09/05 01:12:32;;;;;;;0.82;0.70;;;;;;;;;;1676845;29;21805;-63
2022/09/05 01:13:37;;;;;;;0.80;0.80;;;;;;;;;;1676845;29;22175;-63
2022/09/05 01:14:53;;;;;;;2.97;0.60;;;;;;;;;;1674702;29;22029;-63
2022/09/05 01:15:52;;;;;;;0.85;0.85;;;;;;;;;;1677006;29;21639;-63
2022/09/05 01:17:08;;;;;;;0.63;0.63;;;;;;;;;;1674067;29;22187;-63
2022/09/05 01:18:37;;;;;;;1.20;0.70;;;;;;;;;;1677754;29;21666;-62
2022/09/05 01:19:52;;;;;;;0.60;0.50;;;;;;;;;;1674490;29;21612;-62
2022/09/05 01:21:12;;;;;;;0.70;0.70;;;;;;;;;;1673973;29;21981;-62
2022/09/05 01:22:43;;;;;;;1.77;0.80;;;;;;;;;;1677188;29;21602;-63
2022/09/05 01:23:59;;;;;;;1.00;1.00;;;;;;;;;;1678663;29;21633;-63
2022/09/05 01:25:12;;;;;;;0.60;0.50;;;;;;;;;;1677061;29;21906;-63
2022/09/05 01:26:21;;;;;;;0.55;0.55;;;;;;;;;;1673921;29;22656;-63
2022/09/05 01:27:46;;;;;;;0.70;0.70;;;;;;;;;;1676010;29;22300;-63
2022/09/05 01:28:43;;;;;;;0.75;0.75;;;;;;;;;;1679576;29;21697;-63
2022/09/05 01:29:46;;;;;;;0.63;0.60;;;;;;;;;;1677362;29;22501;-63
2022/09/05 01:30:42;;;;;;;0.80;0.80;;;;;;;;;;1674242;29;21660;-63
2022/09/05 01:31:49;;;;;;;1.23;0.70;;;;;;;;;;1678014;29;21899;-62
2022/09/05 01:32:53;;;;;;;0.70;0.70;;;;;;;;;;1677337;29;22048;-62
2022/09/05 01:33:57;;;;;;;0.50;0.50;;;;;;;;;;1679601;29;21839;-63
2022/09/05 01:35:34;;;;;;;0.60;0.60;;;;;;;;;;1678353;29;21700;-63
2022/09/05 01:36:44;;;;;;;0.77;0.77;;;;;;;;;;1674843;29;21699;-62
2022/09/05 01:37:39;;;;;;;;;;;;;;;;;;1680164;29;21983;-63
2022/09/05 01:38:44;;;;;;;0.60;0.60;;;;;;;;;;1681987;29;22359;-63
2022/09/05 01:39:48;;;;;;;0.80;0.68;;;;;;;;;;1680004;29;21938;-62
2022/09/05 01:40:53;;;;;;;0.70;0.50;;;;;;;;;;1678116;29;22232;-62
2022/09/05 01:41:52;;;;;;;0.60;0.55;;;;;;;;;;1678754;29;23837;-63
2022/09/05 01:43:04;;;;;;;0.63;0.57;;;;;;;;;;1677235;29;21585;-62
2022/09/05 01:44:19;;;;;;;0.68;0.50;;;;;;;;;;1675180;29;22437;-63
2022/09/05 01:45:20;;;;;;;0.55;0.55;;;;;;;;;;1677912;29;21651;-62
2022/09/05 01:46:28;;;;;;;0.55;0.50;;;;;;;;;;1678061;29;21757;-62
2022/09/05 01:47:34;;;;;;;2.75;0.47;;;;;;;;;;1679732;29;22269;-62
2022/09/05 01:48:38;;;;;;;0.73;0.60;;;;;;;;;;1677828;29;22591;-63
2022/09/05 01:49:48;;;;;;;0.77;0.68;;;;;;;;;;1679375;29;21606;-63
2022/09/05 01:50:45;;;;;;;;;;;;;;;;;;1681192;29;21910;-62
2022/09/05 01:51:48;;;;;;;0.60;0.60;;;;;;;;;;1678526;29;21483;-63
2022/09/05 01:53:26;;;;;;;0.50;0.50;;;;;;;;;;1679036;29;21685;-63
2022/09/05 01:54:32;;;;;;;3.25;0.63;;;;;;;;;;1650412;29;21602;-63
2022/09/05 01:55:42;;;;;;;0.60;0.60;;;;;;;;;;1647451;29;21601;-63
2022/09/05 01:56:47;;;;;;;0.50;0.50;;;;;;;;;;1650262;29;21869;-63
2022/09/05 01:57:50;;;;;;;0.60;0.60;;;;;;;;;;1651186;29;21819;-63
2022/09/05 01:58:57;;;;;;;0.45;0.45;;;;;;;;;;1652236;29;22438;-63
2022/09/05 01:59:55;;;;;;;0.70;0.70;;;;;;;;;;1654681;29;21798;-63
2022/09/05 02:00:57;;;;;;;1.25;0.60;;;;;;;;;;1672446;29;22172;-63
2022/09/05 02:02:12;;;;;;;0.73;0.60;;;;;;;;;;1677817;29;22124;-63
2022/09/05 02:03:15;;;;;;;0.50;0.50;;;;;;;;;;1677104;29;21607;-63
2022/09/05 02:04:28;;;;;;;0.57;0.57;;;;;;;;;;1678078;29;21710;-63
2022/09/05 02:05:50;;;;;;;0.50;0.50;;;;;;;;;;1678525;29;21610;-62
2022/09/05 02:06:51;;;;;;;0.40;0.40;;;;;;;;;;1677965;29;22456;-62
2022/09/05 02:08:07;;;;;;;0.60;0.60;;;;;;;;;;1679394;29;22072;-63
2022/09/05 02:09:14;;;;;;;0.68;0.68;;;;;;;;;;1675939;29;21759;-62
2022/09/05 02:10:39;;;;;;;0.50;0.50;;;;;;;;;;1678697;29;22063;-63
2022/09/05 02:11:41;;;;;;;0.40;0.40;;;;;;;;;;1675999;29;21603;-62
2022/09/05 02:12:42;;;;;;;0.65;0.65;;;;;;;;;;1673004;29;21654;-63
2022/09/05 02:13:59;;;;;;;0.50;0.50;;;;;;;;;;1674056;29;21577;-63
2022/09/05 02:14:56;;;;;;;0.50;0.50;;;;;;;;;;1670696;29;22562;-63
2022/09/05 02:15:57;;;;;;;0.63;0.50;;;;;;;;;;1669844;29;21936;-62
2022/09/05 02:16:48;;;;;;;0.50;0.50;;;;;;;;;;1670803;29;22651;-62
2022/09/05 02:17:51;;;;;;;0.50;0.50;;;;;;;;;;1669440;29;22331;-62
2022/09/05 02:18:53;;;;;;;0.63;0.50;;;;;;;;;;1674656;29;22526;-63
2022/09/05 02:19:51;;;;;;;0.40;0.40;;;;;;;;;;1673296;29;22537;-62
2022/09/05 02:20:49;;;;;;;4.80;0.60;;;;;;;;;;1674942;29;22685;-63
2022/09/05 02:21:55;;;;;;;2.28;0.55;;;;;;;;;;1663986;29;22113;-63
2022/09/05 02:22:52;;;;;;;0.70;0.70;;;;;;;;;;1668203;29;21578;-63
2022/09/05 02:23:53;;;;;;;0.80;0.70;;;;;;;;;;1667798;29;21930;-62
2022/09/05 02:24:50;;;;;;;1.63;0.60;;;;;;;;;;1664185;29;21624;-63
2022/09/05 02:25:47;;;;;;;4.68;0.50;;;;;;;;;;1670114;29;21914;-62
2022/09/05 02:26:50;;;;;;;0.50;0.50;;;;;;;;;;1673915;29;21803;-62
2022/09/05 02:27:51;;;;;;;0.50;0.50;;;;;;;;;;1671966;29;22233;-63
2022/09/05 02:28:50;;;;;;;0.40;0.40;;;;;;;;;;1676153;29;21590;-62
2022/09/05 02:29:57;;;;;;;0.73;0.70;;;;;;;;;;1669446;29;22371;-63
2022/09/05 02:30:53;;;;;;;0.73;0.63;;;;;;;;;;1661517;29;22511;-62
2022/09/05 02:31:49;;;;;;;0.60;0.55;;;;;;;;;;1668982;29;21621;-62
2022/09/05 02:32:57;;;;;;;0.55;0.55;;;;;;;;;;1672218;29;21588;-62
2022/09/05 02:33:56;;;;;;;1.65;0.40;;;;;;;;;;1670557;29;22024;-63
2022/09/05 02:34:58;;;;;;;3.28;0.52;;;;;;;;;;1672015;29;21622;-63
2022/09/05 02:36:00;;;;;;;0.40;0.40;;;;;;;;;;1675859;29;21606;-62
2022/09/05 02:37:05;;;;;;;10.70;0.70;;;;;;;;;;1674855;29;21792;-62
2022/09/05 02:38:04;;;;;;;0.50;0.50;;;;;;;;;;1673763;29;21712;-62
2022/09/05 02:39:03;;;;;;;0.50;0.50;;;;;;;;;;1675622;29;21595;-62
2022/09/05 02:40:00;;;;;;;5.88;0.70;;;;;;;;;;1674199;29;21797;-63
2022/09/05 02:40:58;;;;;;;0.90;0.40;;;;;;;;;;1670401;29;21928;-62
2022/09/05 02:41:58;;;;;;;0.55;0.50;;;;;;;;;;1673371;29;21617;-62
2022/09/05 02:43:01;;;;;;;;;;;;;;;;;;1670786;29;22353;-62
2022/09/05 02:43:59;;;;;;;0.43;0.43;;;;;;;;;;1672329;29;21841;-62
2022/09/05 02:45:09;;;;;;;0.77;0.57;;;;;;;;;;1670057;29;21667;-62
2022/09/05 02:46:08;;;;;;;0.57;0.57;;;;;;;;;;1672923;29;21751;-62
2022/09/05 02:47:11;;;;;;;0.77;0.52;;;;;;;;;;1669589;29;22421;-62
2022/09/05 02:48:13;;;;;;;0.40;0.40;;;;;;;;;;1673550;29;21626;-63
2022/09/05 02:49:10;;;;;;;0.40;0.40;;;;;;;;;;1672924;29;21657;-63
2022/09/05 02:50:28;;;;;;;2.30;0.70;;;;;;;;;;1669634;29;21603;-64
2022/09/05 02:51:28;;;;;;;0.63;0.40;;;;;;;;;;1671171;29;21588;-63
2022/09/05 02:52:23;;;;;;;0.50;0.50;;;;;;;;;;1672156;29;21710;-63
2022/09/05 02:53:19;;;;;;;0.73;0.40;;;;;;;;;;1669908;29;21887;-63
2022/09/05 02:54:15;;;;;;;0.50;0.40;;;;;;;;;;1660351;29;22573;-61
2022/09/05 02:55:20;;;;;;;0.35;0.35;;;;;;;;;;1660123;29;21790;-62
2022/09/05 02:56:30;;;;;;;0.40;0.40;;;;;;;;;;1670695;29;21744;-63
2022/09/05 02:57:36;;;;;;;0.60;0.40;;;;;;;;;;1672199;29;22460;-63
2022/09/05 02:58:46;;;;;;;0.75;0.60;;;;;;;;;;1669904;29;21672;-63
2022/09/05 03:00:06;;;;;;;0.40;0.40;;;;;;;;;;1672443;29;21598;-63
2022/09/05 03:01:08;;;;;;;0.65;0.40;;;;;;;;;;1669816;29;21660;-63
2022/09/05 03:02:12;;;;;;;0.30;0.30;;;;;;;;;;1672115;29;21980;-63
2022/09/05 03:03:18;;;;;;;0.47;0.47;;;;;;;;;;1674751;29;21694;-63
2022/09/05 03:04:26;;;;;;;0.65;0.50;;;;;;;;;;1668418;29;21606;-64
2022/09/05 03:05:23;;;;;;;0.20;0.20;;;;;;;;;;1666254;29;22095;-63
2022/09/05 03:06:32;;;;;;;0.50;0.50;;;;;;;;;;1677152;29;21622;-63
2022/09/05 03:07:50;;;;;;;0.40;0.40;;;;;;;;;;1673321;29;21579;-63
2022/09/05 03:09:09;;;;;;;0.40;0.40;;;;;;;;;;1662267;29;21741;-63
2022/09/05 03:10:31;;;;;;;0.30;0.30;;;;;;;;;;1671134;29;21622;-63
2022/09/05 03:12:05;;;;;;;1.05;0.50;;;;;;;;;;1672800;29;21613;-63
2022/09/05 03:13:47;;;;;;;0.82;0.40;;;;;;;;;;1675172;29;22710;-63
2022/09/05 03:15:53;;;;;;;0.50;0.40;;;;;;;;;;1659559;29;22246;-63
2022/09/05 03:17:52;;;;;;;0.40;0.40;;;;;;;;;;1654278;29;22090;-63
2022/09/05 03:19:26;;;;;;;0.57;0.35;;;;;;;;;;1675033;29;22670;-63
2022/09/05 03:21:03;;;;;;;0.40;0.40;;;;;;;;;;1650626;29;21670;-63
2022/09/05 03:23:00;;;;;;;1.38;0.50;;;;;;;;;;1673725;29;21632;-63
2022/09/05 03:24:39;;;;;;;1.00;0.40;;;;;;;;;;1659223;29;22275;-63
2022/09/05 03:26:18;;;;;;;0.40;0.40;;;;;;;;;;1656179;29;21899;-63
2022/09/05 03:28:02;;;;;;;0.70;0.45;;;;;;;;;;1657418;29;21838;-63
2022/09/05 03:29:38;;;;;;;0.35;0.30;;;;;;;;;;1662903;29;21666;-63
2022/09/05 03:30:52;;;;;;;0.40;0.40;;;;;;;;;;1677453;29;22005;-63
2022/09/05 03:32:13;;;;;;;0.47;0.47;;;;;;;;;;1675922;29;21624;-63
2022/09/05 03:34:23;;;;;;;1.67;0.30;;;;;;;;;;1669870;29;21655;-62
2022/09/05 03:35:56;;;;;;;0.70;0.47;;;;;;;;;;1629175;29;22057;-63
2022/09/05 03:37:18;;;;;;;0.60;0.47;;;;;;;;;;1651523;29;21807;-63
2022/09/05 03:39:15;;;;;;;0.30;0.30;;;;;;;;;;1669273;29;21592;-63
2022/09/05 03:40:57;;;;;;;0.40;0.40;;;;;;;;;;1668560;29;21590;-63
2022/09/05 03:42:20;;;;;;;0.40;0.40;;;;;;;;;;1661270;29;22787;-63
2022/09/05 03:44:02;;;;;;;0.43;0.40;;;;;;;;;;1672968;29;21606;-63
2022/09/05 03:45:13;;;;;;;0.32;0.32;;;;;;;;;;1674192;29;22141;-63
2022/09/05 03:46:34;;;;;;;0.43;0.30;;;;;;;;;;1670255;29;21683;-63
2022/09/05 03:48:04;;;;;;;1.23;0.38;;;;;;;;;;1674324;29;21749;-63
2022/09/05 03:49:27;;;;;;;0.43;0.43;;;;;;;;;;1673395;29;21593;-63
2022/09/05 03:50:42;;;;;;;0.30;0.30;;;;;;;;;;1670167;29;22447;-63
2022/09/05 03:51:48;;;;;;;0.47;0.47;;;;;;;;;;1672225;29;21811;-63
2022/09/05 03:52:58;;;;;;;2.47;0.30;;;;;;;;;;1673968;29;21667;-63
2022/09/05 03:54:41;;;;;;;0.35;0.35;;;;;;;;;;1671907;29;22146;-63
2022/09/05 03:55:53;;;;;;;0.30;0.30;;;;;;;;;;1669866;29;21696;-63
2022/09/05 03:57:23;;;;;;;0.40;0.40;;;;;;;;;;1674355;29;21539;-63
2022/09/05 03:58:50;;;;;;;0.40;0.40;;;;;;;;;;1670794;29;21909;-63
2022/09/05 04:00:03;;;;;;;0.40;0.40;;;;;;;;;;1671630;29;22203;-63
2022/09/05 04:01:07;;;;;;;0.20;0.20;;;;;;;;;;1669713;29;21598;-63
2022/09/05 04:02:03;;;;;;;0.73;0.50;;;;;;;;;;1671958;29;21652;-63
2022/09/05 04:03:13;;;;;;;0.80;0.40;;;;;;;;;;1673701;29;21776;-63
2022/09/05 04:04:12;;;;;;;0.80;0.60;;;;;;;;;;1676097;29;22098;-63
2022/09/05 04:05:09;;;;;;;0.40;0.40;;;;;;;;;;1673602;29;21619;-63
2022/09/05 04:06:13;;;;;;;0.63;0.40;;;;;;;;;;1671159;29;21661;-64
2022/09/05 04:07:09;;;;;;;0.30;0.30;;;;;;;;;;1670035;29;21984;-63
2022/09/05 04:08:11;;;;;;;0.47;0.47;;;;;;;;;;1665572;29;21776;-63
2022/09/05 04:09:16;;;;;;;0.40;0.40;;;;;;;;;;1669939;29;21746;-62
2022/09/05 04:10:25;;;;;;;0.30;0.30;;;;;;;;;;1674490;29;22172;-62
2022/09/05 04:11:28;;;;;;;2.40;0.38;;;;;;;;;;1670295;29;21728;-63
2022/09/05 04:12:28;;;;;;;0.30;0.30;;;;;;;;;;1673245;29;22233;-63
2022/09/05 04:13:25;;;;;;;0.50;0.50;;;;;;;;;;1672658;29;21605;-63
2022/09/05 04:14:25;;;;;;;0.30;0.30;;;;;;;;;;1670777;29;22438;-64
2022/09/05 04:15:30;;;;;;;0.30;0.30;;;;;;;;;;1672236;29;21828;-63
2022/09/05 04:16:27;;;;;;;0.35;0.35;;;;;;;;;;1668016;29;21582;-63
2022/09/05 04:17:30;;;;;;;0.47;0.40;;;;;;;;;;1668058;29;21657;-63
2022/09/05 04:18:28;;;;;;;0.30;0.30;;;;;;;;;;1675213;29;22028;-63
2022/09/05 04:19:30;;;;;;;0.40;0.32;;;;;;;;;;1670121;29;22423;-63
2022/09/05 04:20:33;;;;;;;0.40;0.40;;;;;;;;;;1669870;29;21610;-63
2022/09/05 04:21:28;;;;;;;0.35;0.35;;;;;;;;;;1674267;29;21750;-63
2022/09/05 04:22:30;;;;;;;0.50;0.50;;;;;;;;;;1674306;29;21658;-62
2022/09/05 04:23:34;;;;;;;1.10;0.40;;;;;;;;;;1670591;29;21687;-63
2022/09/05 04:24:33;;;;;;;0.30;0.30;;;;;;;;;;1676138;29;21673;-63
2022/09/05 04:25:42;;;;;;;0.32;0.30;;;;;;;;;;1670843;29;22466;-63
2022/09/05 04:27:06;;;;;;;0.47;0.47;;;;;;;;;;1673349;29;21614;-63
2022/09/05 04:28:21;;;;;;;0.57;0.47;;;;;;;;;;1669723;29;21671;-63
2022/09/05 04:29:22;;;;;;;0.30;0.30;;;;;;;;;;1671065;29;21702;-63
2022/09/05 04:30:37;;;;;;;0.80;0.50;;;;;;;;;;1673548;29;21708;-63
2022/09/05 04:31:42;;;;;;;0.73;0.40;;;;;;;;;;1671875;29;22836;-63
2022/09/05 04:32:50;;;;;;;0.40;0.40;;;;;;;;;;1671430;29;21616;-63
2022/09/05 04:33:56;;;;;;;0.52;0.40;;;;;;;;;;1674221;29;21611;-63
2022/09/05 04:35:14;;;;;;;0.30;0.30;;;;;;;;;;1672537;29;21613;-63
2022/09/05 04:36:18;;;;;;;0.52;0.30;;;;;;;;;;1668498;29;21707;-64
2022/09/05 04:37:35;;;;;;;0.40;0.40;;;;;;;;;;1670637;29;22633;-63
2022/09/05 04:38:38;;;;;;;0.50;0.50;;;;;;;;;;1670842;29;22797;-63
2022/09/05 04:39:32;;;;;;;0.50;0.50;;;;;;;;;;1666212;29;21729;-63
2022/09/05 04:40:39;;;;;;;0.50;0.50;;;;;;;;;;1668269;29;21977;-63
2022/09/05 04:41:34;;;;;;;0.30;0.30;;;;;;;;;;1673472;29;21841;-63
2022/09/05 04:42:27;;;;;;;0.40;0.40;;;;;;;;;;1675140;29;21712;-63
2022/09/05 04:43:32;;;;;;;0.35;0.35;;;;;;;;;;1673893;29;21605;-63
2022/09/05 04:44:29;;;;;;;0.30;0.30;;;;;;;;;;1670760;29;21760;-63
2022/09/05 04:45:22;;;;;;;0.75;0.60;;;;;;;;;;1670572;29;22527;-63
2022/09/05 04:46:20;;;;;;;0.30;0.30;;;;;;;;;;1671249;29;21638;-64
2022/09/05 04:47:20;;;;;;;0.45;0.45;;;;;;;;;;1671472;29;21679;-63
2022/09/05 04:48:18;;;;;;;0.60;0.47;;;;;;;;;;1666475;29;21965;-63
2022/09/05 04:49:16;;;;;;;1.85;0.50;;;;;;;;;;1669459;29;21624;-63
2022/09/05 04:50:11;;;;;;;0.40;0.40;;;;;;;;;;1674181;29;21729;-63
2022/09/05 04:51:21;;;;;;;0.65;0.40;;;;;;;;;;1674239;29;22543;-63
2022/09/05 04:52:53;;;;;;;0.40;0.40;;;;;;;;;;1672450;29;21651;-64
2022/09/05 04:54:18;;;;;;;0.40;0.30;;;;;;;;;;1660175;29;21966;-63
2022/09/05 04:55:13;;;;;;;0.45;0.40;;;;;;;;;;1674795;29;21739;-63
2022/09/05 04:56:14;;;;;;;1.88;0.65;;;;;;;;;;1665057;29;21642;-63
2022/09/05 04:57:22;;;;;;;0.50;0.50;;;;;;;;;;1665951;29;21701;-63
2022/09/05 04:58:26;;;;;;;0.50;0.50;;;;;;;;;;1678785;29;22441;-63
2022/09/05 04:59:22;;;;;;;0.73;0.50;;;;;;;;;;1671783;29;21678;-63
2022/09/05 05:00:24;;;;;;;0.40;0.40;;;;;;;;;;1673354;29;21624;-64
2022/09/05 05:01:23;;;;;;;0.47;0.47;;;;;;;;;;1672057;29;21665;-64
2022/09/05 05:02:22;;;;;;;0.65;0.40;;;;;;;;;;1677372;29;22099;-64
2022/09/05 05:03:21;;;;;;;0.40;0.40;;;;;;;;;;1671916;29;21695;-63
2022/09/05 05:04:18;;;;;;;0.35;0.35;;;;;;;;;;1675023;29;22722;-63
2022/09/05 05:05:17;;;;;;;0.40;0.40;;;;;;;;;;1677138;29;22050;-62
2022/09/05 05:06:17;;;;;;;0.40;0.40;;;;;;;;;;1670542;29;21638;-62
2022/09/05 05:07:15;;;;;;;;;;;;;;;;;;1672446;29;21770;-63
2022/09/05 05:08:17;;;;;;;0.43;0.43;;;;;;;;;;1672712;29;22087;-63
2022/09/05 05:09:18;;;;;;;0.50;0.50;;;;;;;;;;1671465;29;21674;-62
2022/09/05 05:10:20;;;;;;;0.50;0.50;;;;;;;;;;1671266;29;22058;-62
2022/09/05 05:11:18;;;;;;;0.95;0.50;;;;;;;;;;1670444;29;22029;-63
2022/09/05 05:12:21;;;;;;;0.75;0.60;;;;;;;;;;1670240;29;21630;-63
2022/09/05 05:13:22;;;;;;;0.50;0.50;;;;;;;;;;1668994;29;21619;-63
2022/09/05 05:14:21;;;;;;;0.63;0.50;;;;;;;;;;1668825;29;21843;-63
2022/09/05 05:15:17;;;;;;;0.40;0.40;;;;;;;;;;1664857;29;22592;-62
2022/09/05 05:16:15;;;;;;;1.52;0.60;;;;;;;;;;1668994;29;21651;-63
2022/09/05 05:17:14;;;;;;;0.22;0.22;;;;;;;;;;1670210;29;21617;-63
2022/09/05 05:18:20;;;;;;;1.05;0.50;;;;;;;;;;1672912;29;21639;-63
2022/09/05 05:19:20;;;;;;;0.40;0.40;;;;;;;;;;1670868;29;21705;-63
2022/09/05 05:20:22;;;;;;;0.47;0.28;;;;;;;;;;1669438;29;21596;-63
2022/09/05 05:21:17;;;;;;;0.50;0.50;;;;;;;;;;1671471;29;21680;-63
2022/09/05 05:22:15;;;;;;;0.40;0.40;;;;;;;;;;1668031;29;21603;-62
2022/09/05 05:23:09;;;;;;;0.40;0.40;;;;;;;;;;1657134;29;21593;-62
2022/09/05 05:24:09;;;;;;;0.30;0.30;;;;;;;;;;1669877;29;21802;-63
2022/09/05 05:25:01;;;;;;;0.30;0.30;;;;;;;;;;1674889;29;22490;-63
2022/09/05 05:25:57;;;;;;;0.30;0.30;;;;;;;;;;1673090;29;21772;-63
2022/09/05 05:26:54;;;;;;;1.00;0.52;;;;;;;;;;1669120;29;21714;-62
2022/09/05 05:28:00;;;;;;;2.60;0.40;;;;;;;;;;1671344;29;22303;-63
2022/09/05 05:28:57;;;;;;;0.50;0.50;;;;;;;;;;1674377;29;21590;-63
2022/09/05 05:29:56;;;;;;;0.75;0.60;;;;;;;;;;1670923;29;22736;-62
2022/09/05 05:30:48;;;;;;;0.70;0.35;;;;;;;;;;1675901;29;21669;-63
2022/09/05 05:31:49;;;;;;;0.80;0.70;;;;;;;;;;1672252;29;21909;-63
2022/09/05 05:32:43;;;;;;;0.82;0.50;;;;;;;;;;1673713;29;21680;-63
2022/09/05 05:33:40;;;;;;;0.60;0.50;;;;;;;;;;1671641;29;22393;-63
2022/09/05 05:34:34;;;;;;;1.40;0.50;;;;;;;;;;1674668;29;21992;-63
2022/09/05 05:35:30;;;;;;;0.35;0.35;;;;;;;;;;1669333;29;22051;-62
2022/09/05 05:36:26;;;;;;;0.50;0.50;;;;;;;;;;1670628;29;22522;-63
2022/09/05 05:37:23;;;;;;;0.38;0.38;;;;;;;;;;1671533;29;21756;-63
2022/09/05 05:38:40;;;;;;;0.40;0.40;;;;;;;;;;1672876;29;21637;-62
2022/09/05 05:39:37;;;;;;;0.52;0.45;;;;;;;;;;1675411;29;21597;-63
2022/09/05 05:40:32;;;;;;;0.50;0.50;;;;;;;;;;1672855;29;21598;-63
2022/09/05 05:41:29;;;;;;;0.80;0.50;;;;;;;;;;1675215;29;22027;-62
2022/09/05 05:42:24;;;;;;;3.13;0.40;;;;;;;;;;1675209;29;21696;-63
2022/09/05 05:43:18;;;;;;;0.40;0.40;;;;;;;;;;1678886;29;21561;-63
2022/09/05 05:44:14;;;;;;;0.45;0.45;;;;;;;;;;1670782;29;22205;-63
2022/09/05 05:45:15;;;;;;;0.40;0.40;;;;;;;;;;1670632;29;22721;-63
2022/09/05 05:46:14;;;;;;;0.40;0.40;;;;;;;;;;1670053;29;21819;-63
2022/09/05 05:47:17;;;;;;;0.55;0.55;;;;;;;;;;1664205;29;22000;-62
2022/09/05 05:48:29;;;;;;;0.50;0.45;;;;;;;;;;1669466;29;21821;-63
2022/09/05 05:50:01;;;;;;;0.40;0.40;;;;;;;;;;1672936;29;21615;-63
2022/09/05 05:51:12;;;;;;;0.55;0.50;;;;;;;;;;1651519;29;22443;-63
2022/09/05 05:52:55;;;;;;;0.30;0.30;;;;;;;;;;1651193;29;21578;-63
2022/09/05 05:53:54;;;;;;;0.82;0.50;;;;;;;;;;1656482;29;21795;-63
2022/09/05 05:54:53;;;;;;;2.22;0.30;;;;;;;;;;1650929;29;21674;-63
2022/09/05 05:56:12;;;;;;;0.30;0.30;;;;;;;;;;1654103;29;21573;-63
2022/09/05 05:57:33;;;;;;;0.35;0.35;;;;;;;;;;1676518;29;22375;-63
2022/09/05 05:58:51;;;;;;;0.63;0.60;;;;;;;;;;1665349;29;21632;-63
2022/09/05 06:00:03;;;;;;;1.55;0.50;;;;;;;;;;1668924;29;22353;-63
2022/09/05 06:01:50;;;;;;;0.50;0.50;;;;;;;;;;1666230;29;21707;-63
2022/09/05 06:03:22;;;;;;;0.50;0.45;;;;;;;;;;1667646;29;21588;-63
2022/09/05 06:05:27;;;;;;;0.47;0.38;;;;;;;;;;1661591;29;22642;-63
2022/09/05 06:06:39;;;;;;;1.38;0.40;;;;;;;;;;1650882;29;21812;-63
2022/09/05 06:07:43;;;;;;;0.40;0.40;;;;;;;;;;1656448;29;21631;-63
2022/09/05 06:09:00;;;;;;;0.40;0.40;;;;;;;;;;1660751;29;21592;-63
2022/09/05 06:10:30;;;;;;;0.52;0.50;;;;;;;;;;1665601;29;21782;-63
2022/09/05 06:11:59;;;;;;;0.55;0.40;;;;;;;;;;1666414;29;21605;-63
2022/09/05 06:13:42;;;;;;;1.10;0.60;;;;;;;;;;1671491;29;21673;-63
2022/09/05 06:15:06;;;;;;;0.60;0.60;;;;;;;;;;1668121;29;22042;-63
2022/09/05 06:16:42;;;;;;;0.63;0.63;;;;;;;;;;1666885;29;21678;-64
2022/09/05 06:18:30;;;;;;;0.93;0.52;;;;;;;;;;1648967;29;21713;-63
2022/09/05 06:20:03;;;;;;;0.73;0.50;;;;;;;;;;1668371;29;21747;-63
2022/09/05 06:21:29;;;;;;;0.77;0.60;;;;;;;;;;1666088;29;22019;-62
2022/09/05 06:23:07;;;;;;;0.50;0.50;;;;;;;;;;1667240;29;21795;-63
2022/09/05 06:25:05;;;;;;;0.70;0.65;;;;;;;;;;1667217;29;22440;-63
2022/09/05 06:26:39;;;;;;;3.45;0.70;;;;;;;;;;1644199;29;21685;-63
2022/09/05 06:27:59;;;;;;;6.13;0.57;;;;;;;;;;1666629;29;21652;-63
2022/09/05 06:29:04;;;;;;;1.60;0.50;;;;;;;;;;1670286;29;22543;-62
2022/09/05 06:30:00;;;;;;;0.85;0.50;;;;;;;;;;1667506;29;22210;-62
2022/09/05 06:31:16;;;;;;;1.30;0.50;;;;;;;;;;1672879;29;21713;-63
2022/09/05 06:32:29;;;;;;;0.75;0.68;;;;;;;;;;1668872;29;21716;-63
2022/09/05 06:33:44;;;;;;;1.15;0.38;;;;;;;;;;1665683;29;21839;-63
2022/09/05 06:34:59;;;;;;;0.52;0.50;;;;;;;;;;1665342;29;22546;-63
2022/09/05 06:36:08;;;;;;;0.70;0.60;;;;;;;;;;1667194;29;21612;-63
2022/09/05 06:37:09;;;;;;;0.50;0.50;;;;;;;;;;1673009;29;21594;-64
2022/09/05 06:38:28;;;;;;;0.90;0.70;;;;;;;;;;1667360;29;22246;-62
2022/09/05 06:39:44;;;;;;;1.30;0.40;;;;;;;;;;1664214;29;22621;-63
2022/09/05 06:40:43;;;;;;;2.30;0.85;;;;;;;;;;1665533;29;22365;-63
2022/09/05 06:41:57;;;;;;;1.00;0.60;;;;;;;;;;1668142;29;21665;-63
2022/09/05 06:43:21;;;;;;;0.52;0.52;;;;;;;;;;1669084;29;21785;-64
2022/09/05 06:45:23;;;;;;;0.60;0.60;;;;;;;;;;1667169;29;21649;-63
2022/09/05 06:46:29;;;;;;;2.17;0.45;;;;;;;;;;1647369;29;21668;-64
2022/09/05 06:47:22;;;;;;;0.93;0.70;;;;;;;;;;1646253;29;21676;-64
2022/09/05 06:48:20;;;;;;;0.75;0.60;;;;;;;;;;1644449;29;21699;-62
2022/09/05 06:49:17;;;;;;;0.55;0.50;;;;;;;;;;1657940;29;21666;-62
2022/09/05 06:50:13;;;;;;;0.60;0.50;;;;;;;;;;1670364;29;21669;-62
2022/09/05 06:51:40;;;;;;;5.45;0.60;;;;;;;;;;1670705;29;21734;-62
2022/09/05 06:53:16;;;;;;;0.82;0.60;;;;;;;;;;1667778;29;21696;-63
2022/09/05 06:54:28;;;;;;;1.38;0.60;;;;;;;;;;1666963;29;22527;-64